sensor_id;sensor_type;location;lat;lon;timestamp;temperature;humidity
14020;DHT22;7085;51.428;6.796;2022-10-31T00:01:10;14.80;99.90
14020;DHT22;7085;51.428;6.796;2022-10-31T00:03:37;14.80;99.90
14020;DHT22;7085;51.428;6.796;2022-10-31T00:06:05;14.80;99.90
14020;DHT22;7085;51.428;6.796;2022-10-31T00:08:32;14.70;99.90
14020;DHT22;7085;51.428;6.796;2022-10-31T00:10:59;14.60;99.90
14020;DHT22;7085;51.428;6.796;2022-10-31T00:13:26;14.60;99.90
14020;DHT22;7085;51.428;6.796;2022-10-31T00:15:52;14.60;99.90
14020;DHT22;7085;51.428;6.796;2022-10-31T00:18:19;14.50;99.90
14020;DHT22;7085;51.428;6.796;2022-10-31T00:20:46;14.50;99.90
14020;DHT22;7085;51.428;6.796;2022-10-31T00:23:14;14.40;99.90
14020;DHT22;7085;51.428;6.796;2022-10-31T00:25:40;14.40;99.90
14020;DHT22;7085;51.428;6.796;2022-10-31T00:28:08;14.30;99.90
14020;DHT22;7085;51.428;6.796;2022-10-31T00:30:37;14.30;99.90
14020;DHT22;7085;51.428;6.796;2022-10-31T00:33:04;14.30;99.90
14020;DHT22;7085;51.428;6.796;2022-10-31T00:35:30;14.40;99.90
14020;DHT22;7085;51.428;6.796;2022-10-31T00:37:57;14.30;99.90
14020;DHT22;7085;51.428;6.796;2022-10-31T00:40:25;14.20;99.90
14020;DHT22;7085;51.428;6.796;2022-10-31T00:42:52;14.20;99.90
14020;DHT22;7085;51.428;6.796;2022-10-31T00:45:19;14.20;99.90
14020;DHT22;7085;51.428;6.796;2022-10-31T00:47:45;14.20;99.90
14020;DHT22;7085;51.428;6.796;2022-10-31T00:50:12;14.20;99.90
14020;DHT22;7085;51.428;6.796;2022-10-31T00:52:39;14.20;99.90
14020;DHT22;7085;51.428;6.796;2022-10-31T00:55:06;14.20;99.90
14020;DHT22;7085;51.428;6.796;2022-10-31T00:57:34;14.20;99.90
14020;DHT22;7085;51.428;6.796;2022-10-31T01:00:01;14.50;99.90
14020;DHT22;7085;51.428;6.796;2022-10-31T01:02:27;14.20;99.90
14020;DHT22;7085;51.428;6.796;2022-10-31T01:04:54;14.30;99.90
14020;DHT22;7085;51.428;6.796;2022-10-31T01:07:21;14.20;99.90
14020;DHT22;7085;51.428;6.796;2022-10-31T01:09:47;14.20;99.90
14020;DHT22;7085;51.428;6.796;2022-10-31T01:12:14;14.20;99.90
14020;DHT22;7085;51.428;6.796;2022-10-31T01:14:44;14.30;99.90
14020;DHT22;7085;51.428;6.796;2022-10-31T01:17:11;14.30;99.90
14020;DHT22;7085;51.428;6.796;2022-10-31T01:19:38;14.20;99.90
14020;DHT22;7085;51.428;6.796;2022-10-31T01:22:04;14.20;99.90
14020;DHT22;7085;51.428;6.796;2022-10-31T01:24:31;14.20;99.90
14020;DHT22;7085;51.428;6.796;2022-10-31T01:26:58;14.20;99.90
14020;DHT22;7085;51.428;6.796;2022-10-31T01:29:25;14.20;99.90
14020;DHT22;7085;51.428;6.796;2022-10-31T01:31:53;14.10;99.90
14020;DHT22;7085;51.428;6.796;2022-10-31T01:34:19;14.20;99.90
14020;DHT22;7085;51.428;6.796;2022-10-31T01:36:46;14.00;99.90
14020;DHT22;7085;51.428;6.796;2022-10-31T01:39:18;13.90;99.90
14020;DHT22;7085;51.428;6.796;2022-10-31T01:41:46;13.90;99.90
14020;DHT22;7085;51.428;6.796;2022-10-31T01:44:48;14.30;99.90
14020;DHT22;7085;51.428;6.796;2022-10-31T01:47:21;13.80;99.90
14020;DHT22;7085;51.428;6.796;2022-10-31T01:49:52;13.80;99.90
14020;DHT22;7085;51.428;6.796;2022-10-31T01:52:22;13.70;99.90
14020;DHT22;7085;51.428;6.796;2022-10-31T01:54:53;13.70;99.90
14020;DHT22;7085;51.428;6.796;2022-10-31T01:57:22;13.70;99.90
14020;DHT22;7085;51.428;6.796;2022-10-31T01:59:52;13.70;99.90
14020;DHT22;7085;51.428;6.796;2022-10-31T02:02:23;13.70;99.90
14020;DHT22;7085;51.428;6.796;2022-10-31T02:04:50;13.60;99.90
14020;DHT22;7085;51.428;6.796;2022-10-31T02:07:22;13.50;99.90
14020;DHT22;7085;51.428;6.796;2022-10-31T02:09:51;13.50;99.90
14020;DHT22;7085;51.428;6.796;2022-10-31T02:12:20;13.50;99.90
14020;DHT22;7085;51.428;6.796;2022-10-31T02:14:47;13.50;99.90
14020;DHT22;7085;51.428;6.796;2022-10-31T02:17:14;13.50;99.90
14020;DHT22;7085;51.428;6.796;2022-10-31T02:19:51;13.50;99.90
14020;DHT22;7085;51.428;6.796;2022-10-31T02:22:24;13.50;99.90
14020;DHT22;7085;51.428;6.796;2022-10-31T02:25:02;13.60;99.90
14020;DHT22;7085;51.428;6.796;2022-10-31T02:27:53;13.50;99.90
14020;DHT22;7085;51.428;6.796;2022-10-31T02:30:24;13.60;99.90
14020;DHT22;7085;51.428;6.796;2022-10-31T02:33:06;13.50;99.90
14020;DHT22;7085;51.428;6.796;2022-10-31T02:35:43;13.50;99.90
14020;DHT22;7085;51.428;6.796;2022-10-31T02:38:25;13.50;99.90
14020;DHT22;7085;51.428;6.796;2022-10-31T02:41:00;13.40;99.90
14020;DHT22;7085;51.428;6.796;2022-10-31T02:43:32;13.40;99.90
14020;DHT22;7085;51.428;6.796;2022-10-31T02:46:05;13.30;99.90
14020;DHT22;7085;51.428;6.796;2022-10-31T02:48:37;13.40;99.90
14020;DHT22;7085;51.428;6.796;2022-10-31T02:51:06;13.30;99.90
14020;DHT22;7085;51.428;6.796;2022-10-31T02:53:34;13.30;99.90
14020;DHT22;7085;51.428;6.796;2022-10-31T02:56:05;13.40;99.90
14020;DHT22;7085;51.428;6.796;2022-10-31T02:58:36;13.20;99.90
14020;DHT22;7085;51.428;6.796;2022-10-31T03:01:14;13.20;99.90
14020;DHT22;7085;51.428;6.796;2022-10-31T03:03:59;13.10;99.90
14020;DHT22;7085;51.428;6.796;2022-10-31T03:06:33;13.10;99.90
14020;DHT22;7085;51.428;6.796;2022-10-31T03:09:05;13.10;99.90
14020;DHT22;7085;51.428;6.796;2022-10-31T03:11:43;13.60;99.90
14020;DHT22;7085;51.428;6.796;2022-10-31T03:14:17;12.90;99.90
14020;DHT22;7085;51.428;6.796;2022-10-31T03:16:47;12.90;99.90
14020;DHT22;7085;51.428;6.796;2022-10-31T03:19:19;12.90;99.90
14020;DHT22;7085;51.428;6.796;2022-10-31T03:21:52;14.00;99.90
14020;DHT22;7085;51.428;6.796;2022-10-31T03:24:20;12.70;99.90
14020;DHT22;7085;51.428;6.796;2022-10-31T03:26:49;12.70;99.90
14020;DHT22;7085;51.428;6.796;2022-10-31T03:29:21;12.70;99.90
14020;DHT22;7085;51.428;6.796;2022-10-31T03:31:51;12.70;99.90
14020;DHT22;7085;51.428;6.796;2022-10-31T03:34:20;12.60;99.90
14020;DHT22;7085;51.428;6.796;2022-10-31T03:36:50;12.60;99.90
14020;DHT22;7085;51.428;6.796;2022-10-31T03:39:19;12.60;99.90
14020;DHT22;7085;51.428;6.796;2022-10-31T03:41:51;12.60;99.90
14020;DHT22;7085;51.428;6.796;2022-10-31T03:44:21;12.60;99.90
14020;DHT22;7085;51.428;6.796;2022-10-31T03:46:49;12.60;99.90
14020;DHT22;7085;51.428;6.796;2022-10-31T03:49:16;12.60;99.90
14020;DHT22;7085;51.428;6.796;2022-10-31T03:51:47;12.50;99.90
14020;DHT22;7085;51.428;6.796;2022-10-31T03:54:22;12.50;99.90
14020;DHT22;7085;51.428;6.796;2022-10-31T03:56:53;12.50;99.90
14020;DHT22;7085;51.428;6.796;2022-10-31T03:59:24;12.60;99.90
14020;DHT22;7085;51.428;6.796;2022-10-31T04:01:57;12.60;99.90
14020;DHT22;7085;51.428;6.796;2022-10-31T04:04:24;12.60;99.90
14020;DHT22;7085;51.428;6.796;2022-10-31T04:06:55;12.60;99.90
14020;DHT22;7085;51.428;6.796;2022-10-31T04:09:23;12.60;99.90
14020;DHT22;7085;51.428;6.796;2022-10-31T04:11:53;12.70;99.90
14020;DHT22;7085;51.428;6.796;2022-10-31T04:14:21;12.70;99.90
14020;DHT22;7085;51.428;6.796;2022-10-31T04:16:48;12.70;99.90
14020;DHT22;7085;51.428;6.796;2022-10-31T04:19:15;12.70;99.90
14020;DHT22;7085;51.428;6.796;2022-10-31T04:21:42;12.70;99.90
14020;DHT22;7085;51.428;6.796;2022-10-31T04:24:11;12.60;99.90
14020;DHT22;7085;51.428;6.796;2022-10-31T04:26:37;12.60;99.90
14020;DHT22;7085;51.428;6.796;2022-10-31T04:29:04;12.70;99.90
14020;DHT22;7085;51.428;6.796;2022-10-31T04:31:31;12.70;99.90
14020;DHT22;7085;51.428;6.796;2022-10-31T04:33:57;12.60;99.90
14020;DHT22;7085;51.428;6.796;2022-10-31T04:36:24;12.60;99.90
14020;DHT22;7085;51.428;6.796;2022-10-31T04:38:51;12.60;99.90
14020;DHT22;7085;51.428;6.796;2022-10-31T04:41:19;12.70;99.90
14020;DHT22;7085;51.428;6.796;2022-10-31T04:43:46;12.70;99.90
14020;DHT22;7085;51.428;6.796;2022-10-31T04:46:12;12.70;99.90
14020;DHT22;7085;51.428;6.796;2022-10-31T04:48:39;12.80;99.90
14020;DHT22;7085;51.428;6.796;2022-10-31T04:51:06;12.70;99.90
14020;DHT22;7085;51.428;6.796;2022-10-31T04:53:33;12.70;99.90
14020;DHT22;7085;51.428;6.796;2022-10-31T04:55:59;13.00;99.90
14020;DHT22;7085;51.428;6.796;2022-10-31T04:58:28;12.60;99.90
14020;DHT22;7085;51.428;6.796;2022-10-31T05:00:55;13.20;99.90
14020;DHT22;7085;51.428;6.796;2022-10-31T05:03:22;12.60;99.90
14020;DHT22;7085;51.428;6.796;2022-10-31T05:05:49;12.50;99.90
14020;DHT22;7085;51.428;6.796;2022-10-31T05:08:16;12.40;99.90
14020;DHT22;7085;51.428;6.796;2022-10-31T05:10:42;12.40;99.90
14020;DHT22;7085;51.428;6.796;2022-10-31T05:13:09;12.40;99.90
14020;DHT22;7085;51.428;6.796;2022-10-31T05:15:37;12.40;99.90
14020;DHT22;7085;51.428;6.796;2022-10-31T05:18:04;12.40;99.90
14020;DHT22;7085;51.428;6.796;2022-10-31T05:20:31;12.40;99.90
14020;DHT22;7085;51.428;6.796;2022-10-31T05:22:58;12.40;99.90
14020;DHT22;7085;51.428;6.796;2022-10-31T05:25:26;12.30;99.90
14020;DHT22;7085;51.428;6.796;2022-10-31T05:27:54;12.30;99.90
14020;DHT22;7085;51.428;6.796;2022-10-31T05:30:23;12.30;99.90
14020;DHT22;7085;51.428;6.796;2022-10-31T05:32:52;12.40;99.90
14020;DHT22;7085;51.428;6.796;2022-10-31T05:35:21;12.40;99.90
14020;DHT22;7085;51.428;6.796;2022-10-31T05:37:48;12.40;99.90
14020;DHT22;7085;51.428;6.796;2022-10-31T05:40:16;12.40;99.90
14020;DHT22;7085;51.428;6.796;2022-10-31T05:42:44;12.40;99.90
14020;DHT22;7085;51.428;6.796;2022-10-31T05:45:15;12.40;99.90
14020;DHT22;7085;51.428;6.796;2022-10-31T05:47:42;12.30;99.90
14020;DHT22;7085;51.428;6.796;2022-10-31T05:50:10;12.40;99.90
14020;DHT22;7085;51.428;6.796;2022-10-31T05:52:37;12.30;99.90
14020;DHT22;7085;51.428;6.796;2022-10-31T05:55:04;12.40;99.90
14020;DHT22;7085;51.428;6.796;2022-10-31T05:57:32;12.40;99.90
14020;DHT22;7085;51.428;6.796;2022-10-31T05:59:59;12.40;99.90
14020;DHT22;7085;51.428;6.796;2022-10-31T06:02:26;12.30;99.90
14020;DHT22;7085;51.428;6.796;2022-10-31T06:04:53;12.30;99.90
14020;DHT22;7085;51.428;6.796;2022-10-31T06:07:21;12.30;99.90
14020;DHT22;7085;51.428;6.796;2022-10-31T06:09:47;12.30;99.90
14020;DHT22;7085;51.428;6.796;2022-10-31T06:12:14;12.30;99.90
14020;DHT22;7085;51.428;6.796;2022-10-31T06:14:41;12.30;99.90
14020;DHT22;7085;51.428;6.796;2022-10-31T06:17:07;12.30;99.90
14020;DHT22;7085;51.428;6.796;2022-10-31T06:19:34;12.30;99.90
14020;DHT22;7085;51.428;6.796;2022-10-31T06:22:01;12.30;99.90
14020;DHT22;7085;51.428;6.796;2022-10-31T06:24:29;12.20;99.90
14020;DHT22;7085;51.428;6.796;2022-10-31T06:26:55;12.20;99.90
14020;DHT22;7085;51.428;6.796;2022-10-31T06:29:22;12.20;99.90
14020;DHT22;7085;51.428;6.796;2022-10-31T06:31:51;12.10;99.90
14020;DHT22;7085;51.428;6.796;2022-10-31T06:34:17;12.10;99.90
14020;DHT22;7085;51.428;6.796;2022-10-31T06:36:45;12.20;99.90
14020;DHT22;7085;51.428;6.796;2022-10-31T06:39:12;12.20;99.90
14020;DHT22;7085;51.428;6.796;2022-10-31T06:41:40;12.20;99.90
14020;DHT22;7085;51.428;6.796;2022-10-31T06:44:07;12.20;99.90
14020;DHT22;7085;51.428;6.796;2022-10-31T06:46:34;12.20;99.90
14020;DHT22;7085;51.428;6.796;2022-10-31T06:49:01;12.10;99.90
14020;DHT22;7085;51.428;6.796;2022-10-31T06:51:27;12.10;99.90
14020;DHT22;7085;51.428;6.796;2022-10-31T06:53:54;12.10;99.90
14020;DHT22;7085;51.428;6.796;2022-10-31T06:56:21;12.20;99.90
14020;DHT22;7085;51.428;6.796;2022-10-31T06:58:49;12.20;99.90
14020;DHT22;7085;51.428;6.796;2022-10-31T07:01:15;12.20;99.90
14020;DHT22;7085;51.428;6.796;2022-10-31T07:03:42;12.30;99.90
14020;DHT22;7085;51.428;6.796;2022-10-31T07:06:09;12.30;99.90
14020;DHT22;7085;51.428;6.796;2022-10-31T07:08:35;12.40;99.90
14020;DHT22;7085;51.428;6.796;2022-10-31T07:11:02;12.40;99.90
14020;DHT22;7085;51.428;6.796;2022-10-31T07:13:29;12.30;99.90
14020;DHT22;7085;51.428;6.796;2022-10-31T07:16:01;12.40;99.90
14020;DHT22;7085;51.428;6.796;2022-10-31T07:18:28;12.40;99.90
14020;DHT22;7085;51.428;6.796;2022-10-31T07:20:55;12.50;99.90
14020;DHT22;7085;51.428;6.796;2022-10-31T07:23:22;12.50;99.90
14020;DHT22;7085;51.428;6.796;2022-10-31T07:25:53;12.60;99.90
14020;DHT22;7085;51.428;6.796;2022-10-31T07:28:20;12.60;99.90
14020;DHT22;7085;51.428;6.796;2022-10-31T07:30:50;12.70;99.90
14020;DHT22;7085;51.428;6.796;2022-10-31T07:33:18;12.70;99.90
14020;DHT22;7085;51.428;6.796;2022-10-31T07:35:44;12.70;99.90
14020;DHT22;7085;51.428;6.796;2022-10-31T07:38:13;12.70;99.90
14020;DHT22;7085;51.428;6.796;2022-10-31T07:40:41;12.80;99.90
14020;DHT22;7085;51.428;6.796;2022-10-31T07:43:10;12.80;99.90
14020;DHT22;7085;51.428;6.796;2022-10-31T07:45:37;12.90;99.90
14020;DHT22;7085;51.428;6.796;2022-10-31T07:48:04;13.00;99.90
14020;DHT22;7085;51.428;6.796;2022-10-31T07:50:32;13.10;99.90
14020;DHT22;7085;51.428;6.796;2022-10-31T07:53:00;13.10;99.90
14020;DHT22;7085;51.428;6.796;2022-10-31T07:55:28;13.20;99.90
14020;DHT22;7085;51.428;6.796;2022-10-31T07:57:56;13.40;99.90
14020;DHT22;7085;51.428;6.796;2022-10-31T08:00:23;13.50;99.90
14020;DHT22;7085;51.428;6.796;2022-10-31T08:02:56;13.70;99.90
14020;DHT22;7085;51.428;6.796;2022-10-31T08:05:23;13.80;99.90
14020;DHT22;7085;51.428;6.796;2022-10-31T08:07:51;13.90;99.90
14020;DHT22;7085;51.428;6.796;2022-10-31T08:10:18;12.60;99.90
14020;DHT22;7085;51.428;6.796;2022-10-31T08:12:45;14.10;99.90
14020;DHT22;7085;51.428;6.796;2022-10-31T08:15:12;14.30;99.90
14020;DHT22;7085;51.428;6.796;2022-10-31T08:17:39;14.20;99.90
14020;DHT22;7085;51.428;6.796;2022-10-31T08:20:07;14.40;99.90
14020;DHT22;7085;51.428;6.796;2022-10-31T08:22:33;14.60;99.90
14020;DHT22;7085;51.428;6.796;2022-10-31T08:25:01;15.10;99.90
14020;DHT22;7085;51.428;6.796;2022-10-31T08:27:28;15.00;99.90
14020;DHT22;7085;51.428;6.796;2022-10-31T08:29:55;15.20;99.90
14020;DHT22;7085;51.428;6.796;2022-10-31T08:32:22;15.50;99.90
14020;DHT22;7085;51.428;6.796;2022-10-31T08:34:48;15.70;99.90
14020;DHT22;7085;51.428;6.796;2022-10-31T08:37:15;15.80;99.90
14020;DHT22;7085;51.428;6.796;2022-10-31T08:39:45;15.90;99.90
14020;DHT22;7085;51.428;6.796;2022-10-31T08:42:13;16.10;99.90
14020;DHT22;7085;51.428;6.796;2022-10-31T08:44:40;16.10;99.90
14020;DHT22;7085;51.428;6.796;2022-10-31T08:47:07;16.10;99.90
14020;DHT22;7085;51.428;6.796;2022-10-31T08:49:33;16.20;99.90
14020;DHT22;7085;51.428;6.796;2022-10-31T08:52:00;16.30;99.90
14020;DHT22;7085;51.428;6.796;2022-10-31T08:54:27;16.30;99.90
14020;DHT22;7085;51.428;6.796;2022-10-31T08:56:54;16.40;99.90
14020;DHT22;7085;51.428;6.796;2022-10-31T08:59:22;16.40;99.90
14020;DHT22;7085;51.428;6.796;2022-10-31T09:01:49;16.40;99.90
14020;DHT22;7085;51.428;6.796;2022-10-31T09:04:16;16.50;99.90
14020;DHT22;7085;51.428;6.796;2022-10-31T09:06:43;16.50;99.90
14020;DHT22;7085;51.428;6.796;2022-10-31T09:09:09;16.60;99.90
14020;DHT22;7085;51.428;6.796;2022-10-31T09:11:36;16.60;99.90
14020;DHT22;7085;51.428;6.796;2022-10-31T09:14:03;16.60;99.90
14020;DHT22;7085;51.428;6.796;2022-10-31T09:16:31;16.60;99.90
14020;DHT22;7085;51.428;6.796;2022-10-31T09:18:57;16.80;99.90
14020;DHT22;7085;51.428;6.796;2022-10-31T09:21:24;16.90;99.90
14020;DHT22;7085;51.428;6.796;2022-10-31T09:23:51;17.00;99.90
14020;DHT22;7085;51.428;6.796;2022-10-31T09:26:19;17.00;99.90
14020;DHT22;7085;51.428;6.796;2022-10-31T09:28:46;17.00;99.90
14020;DHT22;7085;51.428;6.796;2022-10-31T09:31:12;17.10;99.90
14020;DHT22;7085;51.428;6.796;2022-10-31T09:33:40;17.00;99.90
14020;DHT22;7085;51.428;6.796;2022-10-31T09:36:08;17.00;99.90
14020;DHT22;7085;51.428;6.796;2022-10-31T09:38:34;16.90;99.90
14020;DHT22;7085;51.428;6.796;2022-10-31T09:41:07;16.80;99.90
14020;DHT22;7085;51.428;6.796;2022-10-31T09:43:43;16.80;99.90
14020;DHT22;7085;51.428;6.796;2022-10-31T09:46:18;16.80;99.90
14020;DHT22;7085;51.428;6.796;2022-10-31T09:49:07;16.70;99.90
14020;DHT22;7085;51.428;6.796;2022-10-31T09:51:40;16.70;99.90
14020;DHT22;7085;51.428;6.796;2022-10-31T09:54:12;16.60;99.90
14020;DHT22;7085;51.428;6.796;2022-10-31T09:56:40;16.60;99.90
14020;DHT22;7085;51.428;6.796;2022-10-31T09:59:12;16.80;99.90
14020;DHT22;7085;51.428;6.796;2022-10-31T10:01:45;17.10;99.90
14020;DHT22;7085;51.428;6.796;2022-10-31T10:04:31;17.60;99.90
14020;DHT22;7085;51.428;6.796;2022-10-31T10:07:01;18.20;99.90
14020;DHT22;7085;51.428;6.796;2022-10-31T10:09:29;18.90;99.90
14020;DHT22;7085;51.428;6.796;2022-10-31T10:12:06;19.80;99.90
14020;DHT22;7085;51.428;6.796;2022-10-31T10:14:56;21.00;99.90
14020;DHT22;7085;51.428;6.796;2022-10-31T10:17:35;22.40;99.90
14020;DHT22;7085;51.428;6.796;2022-10-31T10:20:18;23.70;51.20
14020;DHT22;7085;51.428;6.796;2022-10-31T10:22:54;25.00;4.00
14020;DHT22;7085;51.428;6.796;2022-10-31T10:25:23;24.20;1.00
14020;DHT22;7085;51.428;6.796;2022-10-31T10:27:59;23.40;6.60
14020;DHT22;7085;51.428;6.796;2022-10-31T10:30:34;22.40;44.60
14020;DHT22;7085;51.428;6.796;2022-10-31T10:33:04;21.40;99.90
14020;DHT22;7085;51.428;6.796;2022-10-31T10:35:41;21.40;99.90
14020;DHT22;7085;51.428;6.796;2022-10-31T10:38:16;21.10;99.90
14020;DHT22;7085;51.428;6.796;2022-10-31T10:40:45;20.50;99.90
14020;DHT22;7085;51.428;6.796;2022-10-31T10:43:22;20.30;99.90
14020;DHT22;7085;51.428;6.796;2022-10-31T10:45:53;19.90;99.90
14020;DHT22;7085;51.428;6.796;2022-10-31T10:48:43;19.60;99.90
14020;DHT22;7085;51.428;6.796;2022-10-31T10:51:21;19.20;99.90
14020;DHT22;7085;51.428;6.796;2022-10-31T10:54:00;19.00;99.90
14020;DHT22;7085;51.428;6.796;2022-10-31T10:56:48;19.10;99.90
14020;DHT22;7085;51.428;6.796;2022-10-31T10:59:19;19.50;99.90
14020;DHT22;7085;51.428;6.796;2022-10-31T11:01:48;20.40;99.90
14020;DHT22;7085;51.428;6.796;2022-10-31T11:04:29;21.00;99.90
14020;DHT22;7085;51.428;6.796;2022-10-31T11:07:05;21.80;99.90
14020;DHT22;7085;51.428;6.796;2022-10-31T11:09:33;21.90;99.90
14020;DHT22;7085;51.428;6.796;2022-10-31T11:12:07;21.90;99.90
14020;DHT22;7085;51.428;6.796;2022-10-31T11:14:37;21.40;99.90
14020;DHT22;7085;51.428;6.796;2022-10-31T11:17:16;21.10;99.90
14020;DHT22;7085;51.428;6.796;2022-10-31T11:19:44;20.80;99.90
14020;DHT22;7085;51.428;6.796;2022-10-31T11:22:16;20.60;99.90
14020;DHT22;7085;51.428;6.796;2022-10-31T11:24:43;20.90;99.90
14020;DHT22;7085;51.428;6.796;2022-10-31T11:27:15;21.20;99.90
14020;DHT22;7085;51.428;6.796;2022-10-31T11:29:42;21.60;99.90
14020;DHT22;7085;51.428;6.796;2022-10-31T11:32:21;22.00;99.90
14020;DHT22;7085;51.428;6.796;2022-10-31T11:34:52;21.80;99.90
14020;DHT22;7085;51.428;6.796;2022-10-31T11:37:23;21.70;99.90
14020;DHT22;7085;51.428;6.796;2022-10-31T11:39:52;21.30;99.90
14020;DHT22;7085;51.428;6.796;2022-10-31T11:42:22;21.30;99.90
14020;DHT22;7085;51.428;6.796;2022-10-31T11:44:50;21.20;99.90
14020;DHT22;7085;51.428;6.796;2022-10-31T11:47:23;20.90;99.90
14020;DHT22;7085;51.428;6.796;2022-10-31T11:49:50;20.60;99.90
14020;DHT22;7085;51.428;6.796;2022-10-31T11:52:19;21.60;99.90
14020;DHT22;7085;51.428;6.796;2022-10-31T11:54:50;20.90;99.90
14020;DHT22;7085;51.428;6.796;2022-10-31T11:57:23;21.00;99.90
14020;DHT22;7085;51.428;6.796;2022-10-31T11:59:52;21.10;99.90
14020;DHT22;7085;51.428;6.796;2022-10-31T12:02:19;21.10;99.90
14020;DHT22;7085;51.428;6.796;2022-10-31T12:04:49;21.00;99.90
14020;DHT22;7085;51.428;6.796;2022-10-31T12:07:17;20.90;99.90
14020;DHT22;7085;51.428;6.796;2022-10-31T12:09:43;20.80;99.90
14020;DHT22;7085;51.428;6.796;2022-10-31T12:12:26;20.80;99.90
14020;DHT22;7085;51.428;6.796;2022-10-31T12:15:07;21.00;99.90
14020;DHT22;7085;51.428;6.796;2022-10-31T12:17:44;20.90;99.90
14020;DHT22;7085;51.428;6.796;2022-10-31T12:20:20;21.20;99.90
14020;DHT22;7085;51.428;6.796;2022-10-31T12:22:56;21.40;99.90
14020;DHT22;7085;51.428;6.796;2022-10-31T12:25:35;21.20;99.90
14020;DHT22;7085;51.428;6.796;2022-10-31T12:28:22;21.10;99.90
14020;DHT22;7085;51.428;6.796;2022-10-31T12:30:59;21.50;99.90
14020;DHT22;7085;51.428;6.796;2022-10-31T12:33:39;21.90;99.90
14020;DHT22;7085;51.428;6.796;2022-10-31T12:36:33;22.00;99.90
14020;DHT22;7085;51.428;6.796;2022-10-31T12:39:11;22.10;99.90
14020;DHT22;7085;51.428;6.796;2022-10-31T12:41:46;22.00;99.90
14020;DHT22;7085;51.428;6.796;2022-10-31T12:44:34;21.90;99.90
14020;DHT22;7085;51.428;6.796;2022-10-31T12:47:24;21.90;99.90
14020;DHT22;7085;51.428;6.796;2022-10-31T12:49:58;22.20;99.90
14020;DHT22;7085;51.428;6.796;2022-10-31T12:52:40;22.20;99.90
14020;DHT22;7085;51.428;6.796;2022-10-31T12:55:23;21.80;99.90
14020;DHT22;7085;51.428;6.796;2022-10-31T12:57:57;21.80;99.90
14020;DHT22;7085;51.428;6.796;2022-10-31T13:00:26;21.90;99.90
14020;DHT22;7085;51.428;6.796;2022-10-31T13:02:56;22.00;99.90
14020;DHT22;7085;51.428;6.796;2022-10-31T13:05:30;22.20;99.90
14020;DHT22;7085;51.428;6.796;2022-10-31T13:08:00;22.20;99.90
14020;DHT22;7085;51.428;6.796;2022-10-31T13:10:31;22.20;98.70
14020;DHT22;7085;51.428;6.796;2022-10-31T13:13:03;22.20;99.90
14020;DHT22;7085;51.428;6.796;2022-10-31T13:15:39;22.00;99.90
14020;DHT22;7085;51.428;6.796;2022-10-31T13:18:15;20.70;99.90
14020;DHT22;7085;51.428;6.796;2022-10-31T13:20:47;21.60;99.90
14020;DHT22;7085;51.428;6.796;2022-10-31T13:23:19;21.60;99.90
14020;DHT22;7085;51.428;6.796;2022-10-31T13:25:50;21.50;99.90
14020;DHT22;7085;51.428;6.796;2022-10-31T13:28:25;21.50;99.90
14020;DHT22;7085;51.428;6.796;2022-10-31T13:30:54;21.60;99.90
14020;DHT22;7085;51.428;6.796;2022-10-31T13:33:25;21.70;99.90
14020;DHT22;7085;51.428;6.796;2022-10-31T13:36:06;21.40;99.90
14020;DHT22;7085;51.428;6.796;2022-10-31T13:38:38;21.40;99.90
14020;DHT22;7085;51.428;6.796;2022-10-31T13:41:12;21.30;99.90
14020;DHT22;7085;51.428;6.796;2022-10-31T13:43:56;21.20;99.90
14020;DHT22;7085;51.428;6.796;2022-10-31T13:46:37;21.40;99.90
14020;DHT22;7085;51.428;6.796;2022-10-31T13:49:18;21.30;99.90
14020;DHT22;7085;51.428;6.796;2022-10-31T13:51:47;21.20;99.90
14020;DHT22;7085;51.428;6.796;2022-10-31T13:54:21;21.20;99.90
14020;DHT22;7085;51.428;6.796;2022-10-31T13:56:49;21.20;99.90
14020;DHT22;7085;51.428;6.796;2022-10-31T13:59:19;21.30;91.50
14020;DHT22;7085;51.428;6.796;2022-10-31T14:01:55;21.30;86.80
14020;DHT22;7085;51.428;6.796;2022-10-31T14:04:23;21.20;91.30
14020;DHT22;7085;51.428;6.796;2022-10-31T14:06:57;21.20;80.60
14020;DHT22;7085;51.428;6.796;2022-10-31T14:09:29;21.10;89.30
14020;DHT22;7085;51.428;6.796;2022-10-31T14:11:58;21.10;75.40
14020;DHT22;7085;51.428;6.796;2022-10-31T14:14:32;21.00;78.80
14020;DHT22;7085;51.428;6.796;2022-10-31T14:17:01;21.10;86.10
14020;DHT22;7085;51.428;6.796;2022-10-31T14:19:28;21.10;91.40
14020;DHT22;7085;51.428;6.796;2022-10-31T14:21:55;21.00;89.40
14020;DHT22;7085;51.428;6.796;2022-10-31T14:24:33;21.00;91.10
14020;DHT22;7085;51.428;6.796;2022-10-31T14:27:03;20.90;85.50
14020;DHT22;7085;51.428;6.796;2022-10-31T14:29:31;20.90;87.20
14020;DHT22;7085;51.428;6.796;2022-10-31T14:32:06;20.80;94.50
14020;DHT22;7085;51.428;6.796;2022-10-31T14:34:40;20.80;97.60
14020;DHT22;7085;51.428;6.796;2022-10-31T14:37:37;20.80;95.40
14020;DHT22;7085;51.428;6.796;2022-10-31T14:40:25;20.70;98.50
14020;DHT22;7085;51.428;6.796;2022-10-31T14:43:16;20.70;92.90
14020;DHT22;7085;51.428;6.796;2022-10-31T14:45:55;20.70;93.30
14020;DHT22;7085;51.428;6.796;2022-10-31T14:48:43;20.60;93.50
14020;DHT22;7085;51.428;6.796;2022-10-31T14:51:19;20.50;75.40
14020;DHT22;7085;51.428;6.796;2022-10-31T14:53:48;20.50;89.00
14020;DHT22;7085;51.428;6.796;2022-10-31T14:56:20;20.40;90.60
14020;DHT22;7085;51.428;6.796;2022-10-31T14:58:48;20.40;82.30
14020;DHT22;7085;51.428;6.796;2022-10-31T15:01:19;20.30;81.10
14020;DHT22;7085;51.428;6.796;2022-10-31T15:03:49;20.30;85.00
14020;DHT22;7085;51.428;6.796;2022-10-31T15:06:18;20.20;93.40
14020;DHT22;7085;51.428;6.796;2022-10-31T15:08:48;20.20;99.90
14020;DHT22;7085;51.428;6.796;2022-10-31T15:11:17;20.10;99.90
14020;DHT22;7085;51.428;6.796;2022-10-31T15:13:48;20.10;99.90
14020;DHT22;7085;51.428;6.796;2022-10-31T15:16:17;20.00;95.20
14020;DHT22;7085;51.428;6.796;2022-10-31T15:18:50;20.10;96.80
14020;DHT22;7085;51.428;6.796;2022-10-31T15:21:19;19.90;93.30
14020;DHT22;7085;51.428;6.796;2022-10-31T15:23:47;19.90;89.60
14020;DHT22;7085;51.428;6.796;2022-10-31T15:26:17;19.90;90.80
14020;DHT22;7085;51.428;6.796;2022-10-31T15:28:44;19.80;93.50
14020;DHT22;7085;51.428;6.796;2022-10-31T15:31:16;19.70;95.90
14020;DHT22;7085;51.428;6.796;2022-10-31T15:33:46;19.70;98.10
14020;DHT22;7085;51.428;6.796;2022-10-31T15:36:20;19.60;95.90
14020;DHT22;7085;51.428;6.796;2022-10-31T15:38:48;19.50;99.20
14020;DHT22;7085;51.428;6.796;2022-10-31T15:41:26;19.30;99.90
14020;DHT22;7085;51.428;6.796;2022-10-31T15:43:54;19.30;99.90
14020;DHT22;7085;51.428;6.796;2022-10-31T15:46:21;19.20;99.90
14020;DHT22;7085;51.428;6.796;2022-10-31T15:48:48;19.00;99.90
14020;DHT22;7085;51.428;6.796;2022-10-31T15:51:15;19.00;99.90
14020;DHT22;7085;51.428;6.796;2022-10-31T15:53:45;18.90;99.90
14020;DHT22;7085;51.428;6.796;2022-10-31T15:56:20;18.80;99.90
14020;DHT22;7085;51.428;6.796;2022-10-31T15:58:51;18.70;99.90
14020;DHT22;7085;51.428;6.796;2022-10-31T16:01:21;18.70;99.90
14020;DHT22;7085;51.428;6.796;2022-10-31T16:03:58;18.60;99.90
14020;DHT22;7085;51.428;6.796;2022-10-31T16:06:26;18.50;99.90
14020;DHT22;7085;51.428;6.796;2022-10-31T16:08:54;18.50;99.90